sensor_id;sensor_type;location;lat;lon;timestamp;temperature;humidity
64705;DHT22;51131;52.298;13.686;2022-07-23T00:00:09;21.60;75.80
64705;DHT22;51131;52.298;13.686;2022-07-23T00:02:36;21.60;75.80
64705;DHT22;51131;52.298;13.686;2022-07-23T00:05:03;21.60;75.80
64705;DHT22;51131;52.298;13.686;2022-07-23T00:07:30;21.60;75.80
64705;DHT22;51131;52.298;13.686;2022-07-23T00:09:57;21.60;75.80
64705;DHT22;51131;52.298;13.686;2022-07-23T00:12:24;21.60;75.80
64705;DHT22;51131;52.298;13.686;2022-07-23T00:14:51;21.60;75.80
64705;DHT22;51131;52.298;13.686;2022-07-23T00:17:17;21.60;75.80
64705;DHT22;51131;52.298;13.686;2022-07-23T00:19:44;21.60;75.80
64705;DHT22;51131;52.298;13.686;2022-07-23T00:22:11;21.60;75.80
64705;DHT22;51131;52.298;13.686;2022-07-23T00:24:38;21.60;75.80
64705;DHT22;51131;52.298;13.686;2022-07-23T00:27:04;21.60;75.80
64705;DHT22;51131;52.298;13.686;2022-07-23T00:29:31;21.60;75.80
64705;DHT22;51131;52.298;13.686;2022-07-23T00:31:58;21.60;75.70
64705;DHT22;51131;52.298;13.686;2022-07-23T00:34:25;21.60;75.70
64705;DHT22;51131;52.298;13.686;2022-07-23T00:36:51;21.60;75.70
64705;DHT22;51131;52.298;13.686;2022-07-23T00:39:20;21.80;75.90
64705;DHT22;51131;52.298;13.686;2022-07-23T00:41:48;21.60;75.70
64705;DHT22;51131;52.298;13.686;2022-07-23T00:44:19;21.60;75.70
64705;DHT22;51131;52.298;13.686;2022-07-23T00:46:50;21.60;75.60
64705;DHT22;51131;52.298;13.686;2022-07-23T00:49:20;21.60;75.60
64705;DHT22;51131;52.298;13.686;2022-07-23T00:51:47;21.60;75.60
64705;DHT22;51131;52.298;13.686;2022-07-23T00:54:15;21.60;75.60
64705;DHT22;51131;52.298;13.686;2022-07-23T00:56:42;21.60;75.60
64705;DHT22;51131;52.298;13.686;2022-07-23T00:59:09;21.60;75.60
64705;DHT22;51131;52.298;13.686;2022-07-23T01:01:36;21.60;75.60
64705;DHT22;51131;52.298;13.686;2022-07-23T01:04:04;21.50;75.50
64705;DHT22;51131;52.298;13.686;2022-07-23T01:06:35;21.50;75.50
64705;DHT22;51131;52.298;13.686;2022-07-23T01:09:03;21.60;75.60
64705;DHT22;51131;52.298;13.686;2022-07-23T01:11:31;21.60;75.60
64705;DHT22;51131;52.298;13.686;2022-07-23T01:13:58;21.60;75.60
64705;DHT22;51131;52.298;13.686;2022-07-23T01:16:24;21.50;75.50
64705;DHT22;51131;52.298;13.686;2022-07-23T01:18:51;21.60;75.60
64705;DHT22;51131;52.298;13.686;2022-07-23T01:21:18;21.60;75.60
64705;DHT22;51131;52.298;13.686;2022-07-23T01:23:45;21.50;75.50
64705;DHT22;51131;52.298;13.686;2022-07-23T01:26:12;21.50;75.50
64705;DHT22;51131;52.298;13.686;2022-07-23T01:28:40;21.50;75.50
64705;DHT22;51131;52.298;13.686;2022-07-23T01:31:07;21.50;75.40
64705;DHT22;51131;52.298;13.686;2022-07-23T01:33:33;21.50;75.50
64705;DHT22;51131;52.298;13.686;2022-07-23T01:36:00;21.50;75.40
64705;DHT22;51131;52.298;13.686;2022-07-23T01:38:27;21.50;75.50
64705;DHT22;51131;52.298;13.686;2022-07-23T01:40:53;21.50;75.50
64705;DHT22;51131;52.298;13.686;2022-07-23T01:43:21;21.50;75.40
64705;DHT22;51131;52.298;13.686;2022-07-23T01:45:51;21.50;75.50
64705;DHT22;51131;52.298;13.686;2022-07-23T01:48:17;21.50;75.50
64705;DHT22;51131;52.298;13.686;2022-07-23T01:50:45;21.60;75.50
64705;DHT22;51131;52.298;13.686;2022-07-23T01:53:12;21.60;75.50
64705;DHT22;51131;52.298;13.686;2022-07-23T01:55:39;21.60;75.60
64705;DHT22;51131;52.298;13.686;2022-07-23T01:58:05;21.60;75.50
64705;DHT22;51131;52.298;13.686;2022-07-23T02:00:32;21.70;75.60
64705;DHT22;51131;52.298;13.686;2022-07-23T02:02:59;21.60;75.50
64705;DHT22;51131;52.298;13.686;2022-07-23T02:05:26;21.60;75.40
64705;DHT22;51131;52.298;13.686;2022-07-23T02:07:55;21.60;75.40
64705;DHT22;51131;52.298;13.686;2022-07-23T02:10:22;21.70;75.50
64705;DHT22;51131;52.298;13.686;2022-07-23T02:12:48;21.60;75.40
64705;DHT22;51131;52.298;13.686;2022-07-23T02:15:15;21.60;75.40
64705;DHT22;51131;52.298;13.686;2022-07-23T02:17:42;21.70;75.50
64705;DHT22;51131;52.298;13.686;2022-07-23T02:20:09;21.70;75.50
64705;DHT22;51131;52.298;13.686;2022-07-23T02:22:36;21.60;75.40
64705;DHT22;51131;52.298;13.686;2022-07-23T02:25:03;21.60;75.40
64705;DHT22;51131;52.298;13.686;2022-07-23T02:27:30;21.60;75.40
64705;DHT22;51131;52.298;13.686;2022-07-23T02:29:57;21.70;75.50
64705;DHT22;51131;52.298;13.686;2022-07-23T02:32:24;21.60;75.40
64705;DHT22;51131;52.298;13.686;2022-07-23T02:34:51;21.70;75.50
64705;DHT22;51131;52.298;13.686;2022-07-23T02:37:17;21.60;75.40
64705;DHT22;51131;52.298;13.686;2022-07-23T02:39:44;21.70;75.50
64705;DHT22;51131;52.298;13.686;2022-07-23T02:42:11;21.60;75.40
64705;DHT22;51131;52.298;13.686;2022-07-23T02:44:38;21.70;75.50
64705;DHT22;51131;52.298;13.686;2022-07-23T02:47:05;21.60;75.40
64705;DHT22;51131;52.298;13.686;2022-07-23T02:49:32;21.60;75.40
64705;DHT22;51131;52.298;13.686;2022-07-23T02:51:59;21.70;75.50
64705;DHT22;51131;52.298;13.686;2022-07-23T02:54:26;21.70;75.50
64705;DHT22;51131;52.298;13.686;2022-07-23T02:56:52;21.60;75.40
64705;DHT22;51131;52.298;13.686;2022-07-23T02:59:19;21.60;75.50
64705;DHT22;51131;52.298;13.686;2022-07-23T03:01:46;21.60;75.40
64705;DHT22;51131;52.298;13.686;2022-07-23T03:04:13;21.70;75.60
64705;DHT22;51131;52.298;13.686;2022-07-23T03:06:39;21.60;75.50
64705;DHT22;51131;52.298;13.686;2022-07-23T03:09:06;21.60;75.40
64705;DHT22;51131;52.298;13.686;2022-07-23T03:11:33;21.60;75.50
64705;DHT22;51131;52.298;13.686;2022-07-23T03:14:00;21.60;75.50
64705;DHT22;51131;52.298;13.686;2022-07-23T03:16:26;21.60;75.50
64705;DHT22;51131;52.298;13.686;2022-07-23T03:18:53;21.60;75.50
64705;DHT22;51131;52.298;13.686;2022-07-23T03:21:20;21.60;75.50
64705;DHT22;51131;52.298;13.686;2022-07-23T03:23:46;21.50;75.40
64705;DHT22;51131;52.298;13.686;2022-07-23T03:26:13;21.60;75.40
64705;DHT22;51131;52.298;13.686;2022-07-23T03:28:40;21.60;75.40
64705;DHT22;51131;52.298;13.686;2022-07-23T03:31:07;21.60;75.50
64705;DHT22;51131;52.298;13.686;2022-07-23T03:33:34;21.60;75.50
64705;DHT22;51131;52.298;13.686;2022-07-23T03:36:01;21.60;75.50
64705;DHT22;51131;52.298;13.686;2022-07-23T03:38:30;21.60;75.40
64705;DHT22;51131;52.298;13.686;2022-07-23T03:40:56;21.60;75.40
64705;DHT22;51131;52.298;13.686;2022-07-23T03:43:23;21.60;75.40
64705;DHT22;51131;52.298;13.686;2022-07-23T03:45:52;21.60;75.40
64705;DHT22;51131;52.298;13.686;2022-07-23T03:48:19;21.60;75.40
64705;DHT22;51131;52.298;13.686;2022-07-23T03:50:45;21.60;75.40
64705;DHT22;51131;52.298;13.686;2022-07-23T03:53:12;21.60;75.50
64705;DHT22;51131;52.298;13.686;2022-07-23T03:55:39;21.60;75.50
64705;DHT22;51131;52.298;13.686;2022-07-23T03:58:05;21.60;75.40
64705;DHT22;51131;52.298;13.686;2022-07-23T04:00:32;21.60;75.40
64705;DHT22;51131;52.298;13.686;2022-07-23T04:02:59;21.60;75.50
64705;DHT22;51131;52.298;13.686;2022-07-23T04:05:26;21.60;75.50
64705;DHT22;51131;52.298;13.686;2022-07-23T04:07:52;22.40;76.30
64705;DHT22;51131;52.298;13.686;2022-07-23T04:10:19;21.50;75.40
64705;DHT22;51131;52.298;13.686;2022-07-23T04:12:46;21.70;75.60
64705;DHT22;51131;52.298;13.686;2022-07-23T04:15:13;21.60;75.40
64705;DHT22;51131;52.298;13.686;2022-07-23T04:17:39;21.60;75.70
64705;DHT22;51131;52.298;13.686;2022-07-23T04:20:06;21.60;75.40
64705;DHT22;51131;52.298;13.686;2022-07-23T04:22:33;21.60;75.40
64705;DHT22;51131;52.298;13.686;2022-07-23T04:25:00;21.60;75.40
64705;DHT22;51131;52.298;13.686;2022-07-23T04:27:26;21.50;75.30
64705;DHT22;51131;52.298;13.686;2022-07-23T04:29:53;21.50;75.30
64705;DHT22;51131;52.298;13.686;2022-07-23T04:32:20;21.50;75.30
64705;DHT22;51131;52.298;13.686;2022-07-23T04:34:46;21.50;75.30
64705;DHT22;51131;52.298;13.686;2022-07-23T04:37:13;21.50;75.30
64705;DHT22;51131;52.298;13.686;2022-07-23T04:39:40;21.50;75.30
64705;DHT22;51131;52.298;13.686;2022-07-23T04:42:06;21.50;75.30
64705;DHT22;51131;52.298;13.686;2022-07-23T04:44:33;21.50;75.30
64705;DHT22;51131;52.298;13.686;2022-07-23T04:47:00;21.50;75.30
64705;DHT22;51131;52.298;13.686;2022-07-23T04:49:27;21.50;75.30
64705;DHT22;51131;52.298;13.686;2022-07-23T04:51:54;21.50;75.30
64705;DHT22;51131;52.298;13.686;2022-07-23T04:54:20;21.50;75.30
64705;DHT22;51131;52.298;13.686;2022-07-23T04:56:47;21.50;75.40
64705;DHT22;51131;52.298;13.686;2022-07-23T04:59:14;21.50;75.40
64705;DHT22;51131;52.298;13.686;2022-07-23T05:01:41;21.50;75.40
64705;DHT22;51131;52.298;13.686;2022-07-23T05:04:08;21.50;75.40
64705;DHT22;51131;52.298;13.686;2022-07-23T05:06:35;21.50;75.40
64705;DHT22;51131;52.298;13.686;2022-07-23T05:09:02;21.50;75.40
64705;DHT22;51131;52.298;13.686;2022-07-23T05:11:29;21.40;75.30
64705;DHT22;51131;52.298;13.686;2022-07-23T05:13:56;21.50;75.40
64705;DHT22;51131;52.298;13.686;2022-07-23T05:16:23;21.50;75.40
64705;DHT22;51131;52.298;13.686;2022-07-23T05:18:49;21.50;75.30
64705;DHT22;51131;52.298;13.686;2022-07-23T05:21:16;21.50;75.40
64705;DHT22;51131;52.298;13.686;2022-07-23T05:23:43;21.50;75.30
64705;DHT22;51131;52.298;13.686;2022-07-23T05:26:10;21.50;75.20
64705;DHT22;51131;52.298;13.686;2022-07-23T05:28:36;21.60;75.40
64705;DHT22;51131;52.298;13.686;2022-07-23T05:31:03;21.60;75.40
64705;DHT22;51131;52.298;13.686;2022-07-23T05:33:30;21.60;75.40
64705;DHT22;51131;52.298;13.686;2022-07-23T05:36:04;21.60;75.40
64705;DHT22;51131;52.298;13.686;2022-07-23T05:38:31;21.60;75.40
64705;DHT22;51131;52.298;13.686;2022-07-23T05:40:58;21.60;75.30
64705;DHT22;51131;52.298;13.686;2022-07-23T05:43:25;21.60;75.30
64705;DHT22;51131;52.298;13.686;2022-07-23T05:45:52;21.60;75.20
64705;DHT22;51131;52.298;13.686;2022-07-23T05:48:20;22.90;76.50
64705;DHT22;51131;52.298;13.686;2022-07-23T05:50:47;21.60;75.20
64705;DHT22;51131;52.298;13.686;2022-07-23T05:53:14;21.60;75.20
64705;DHT22;51131;52.298;13.686;2022-07-23T05:55:40;21.60;75.20
64705;DHT22;51131;52.298;13.686;2022-07-23T05:58:07;21.60;75.20
64705;DHT22;51131;52.298;13.686;2022-07-23T06:00:35;21.60;75.30
64705;DHT22;51131;52.298;13.686;2022-07-23T06:03:02;21.60;75.20
64705;DHT22;51131;52.298;13.686;2022-07-23T06:05:28;21.60;75.30
64705;DHT22;51131;52.298;13.686;2022-07-23T06:07:55;21.60;75.30
64705;DHT22;51131;52.298;13.686;2022-07-23T06:10:22;21.60;75.30
64705;DHT22;51131;52.298;13.686;2022-07-23T06:12:49;21.60;75.30
64705;DHT22;51131;52.298;13.686;2022-07-23T06:15:15;21.60;75.40
64705;DHT22;51131;52.298;13.686;2022-07-23T06:17:42;21.60;75.40
64705;DHT22;51131;52.298;13.686;2022-07-23T06:20:09;21.60;75.40
64705;DHT22;51131;52.298;13.686;2022-07-23T06:22:36;21.60;75.50
64705;DHT22;51131;52.298;13.686;2022-07-23T06:25:03;21.60;75.40
64705;DHT22;51131;52.298;13.686;2022-07-23T06:27:37;21.60;75.40
64705;DHT22;51131;52.298;13.686;2022-07-23T06:30:04;21.60;75.40
64705;DHT22;51131;52.298;13.686;2022-07-23T06:32:32;21.60;75.50
64705;DHT22;51131;52.298;13.686;2022-07-23T06:34:58;21.60;75.50
64705;DHT22;51131;52.298;13.686;2022-07-23T06:37:25;21.60;75.50
64705;DHT22;51131;52.298;13.686;2022-07-23T06:39:52;21.60;75.60
64705;DHT22;51131;52.298;13.686;2022-07-23T06:42:19;21.60;75.60
64705;DHT22;51131;52.298;13.686;2022-07-23T06:44:46;21.60;75.50
64705;DHT22;51131;52.298;13.686;2022-07-23T06:47:13;21.60;75.50
64705;DHT22;51131;52.298;13.686;2022-07-23T06:49:39;21.60;75.50
64705;DHT22;51131;52.298;13.686;2022-07-23T06:52:07;21.70;75.70
64705;DHT22;51131;52.298;13.686;2022-07-23T06:54:34;21.60;75.60
64705;DHT22;51131;52.298;13.686;2022-07-23T06:57:01;21.60;75.60
64705;DHT22;51131;52.298;13.686;2022-07-23T06:59:28;21.60;75.60
64705;DHT22;51131;52.298;13.686;2022-07-23T07:01:54;21.50;75.50
64705;DHT22;51131;52.298;13.686;2022-07-23T07:04:21;21.60;75.60
64705;DHT22;51131;52.298;13.686;2022-07-23T07:06:48;21.60;75.60
64705;DHT22;51131;52.298;13.686;2022-07-23T07:09:15;21.60;75.50
64705;DHT22;51131;52.298;13.686;2022-07-23T07:11:41;21.60;75.50
64705;DHT22;51131;52.298;13.686;2022-07-23T07:14:08;21.60;75.60
64705;DHT22;51131;52.298;13.686;2022-07-23T07:16:35;21.60;75.60
64705;DHT22;51131;52.298;13.686;2022-07-23T07:19:01;21.60;75.60
64705;DHT22;51131;52.298;13.686;2022-07-23T07:21:29;21.60;75.60
64705;DHT22;51131;52.298;13.686;2022-07-23T07:23:56;21.50;75.50
64705;DHT22;51131;52.298;13.686;2022-07-23T07:26:23;21.60;75.60
64705;DHT22;51131;52.298;13.686;2022-07-23T07:28:49;21.60;75.70
64705;DHT22;51131;52.298;13.686;2022-07-23T07:31:16;21.60;75.60
64705;DHT22;51131;52.298;13.686;2022-07-23T07:33:43;21.50;75.60
64705;DHT22;51131;52.298;13.686;2022-07-23T07:36:10;21.60;75.70
64705;DHT22;51131;52.298;13.686;2022-07-23T07:38:44;21.50;75.60
64705;DHT22;51131;52.298;13.686;2022-07-23T07:41:10;21.60;75.70
64705;DHT22;51131;52.298;13.686;2022-07-23T07:43:38;21.60;75.80
64705;DHT22;51131;52.298;13.686;2022-07-23T07:46:05;21.60;75.90
64705;DHT22;51131;52.298;13.686;2022-07-23T07:48:37;21.60;75.90
64705;DHT22;51131;52.298;13.686;2022-07-23T07:51:04;21.50;75.80
64705;DHT22;51131;52.298;13.686;2022-07-23T07:53:30;21.60;75.80
64705;DHT22;51131;52.298;13.686;2022-07-23T07:55:57;21.60;75.80
64705;DHT22;51131;52.298;13.686;2022-07-23T07:58:24;21.50;75.70
64705;DHT22;51131;52.298;13.686;2022-07-23T08:00:51;21.50;75.70
64705;DHT22;51131;52.298;13.686;2022-07-23T08:03:17;21.50;75.70
64705;DHT22;51131;52.298;13.686;2022-07-23T08:05:45;21.50;75.70
64705;DHT22;51131;52.298;13.686;2022-07-23T08:08:12;21.50;75.70
64705;DHT22;51131;52.298;13.686;2022-07-23T08:10:41;21.50;75.80
64705;DHT22;51131;52.298;13.686;2022-07-23T08:13:08;21.50;75.80
64705;DHT22;51131;52.298;13.686;2022-07-23T08:15:38;21.50;75.70
64705;DHT22;51131;52.298;13.686;2022-07-23T08:18:05;21.50;75.70
64705;DHT22;51131;52.298;13.686;2022-07-23T08:20:32;21.50;75.70
64705;DHT22;51131;52.298;13.686;2022-07-23T08:22:59;21.50;75.80
64705;DHT22;51131;52.298;13.686;2022-07-23T08:25:28;21.50;76.10
64705;DHT22;51131;52.298;13.686;2022-07-23T08:27:55;21.50;76.10
64705;DHT22;51131;52.298;13.686;2022-07-23T08:30:22;21.50;76.10
64705;DHT22;51131;52.298;13.686;2022-07-23T08:32:53;21.50;76.20
64705;DHT22;51131;52.298;13.686;2022-07-23T08:35:28;21.50;76.20
64705;DHT22;51131;52.298;13.686;2022-07-23T08:37:56;21.50;76.60
64705;DHT22;51131;52.298;13.686;2022-07-23T08:40:23;21.90;77.00
64705;DHT22;51131;52.298;13.686;2022-07-23T08:42:51;21.50;76.50
64705;DHT22;51131;52.298;13.686;2022-07-23T08:45:19;21.50;76.30
64705;DHT22;51131;52.298;13.686;2022-07-23T08:47:48;21.50;76.70
64705;DHT22;51131;52.298;13.686;2022-07-23T08:50:19;21.50;76.60
64705;DHT22;51131;52.298;13.686;2022-07-23T08:52:46;21.50;76.70
64705;DHT22;51131;52.298;13.686;2022-07-23T08:55:15;21.50;76.40
64705;DHT22;51131;52.298;13.686;2022-07-23T08:57:42;21.50;76.30
64705;DHT22;51131;52.298;13.686;2022-07-23T09:00:09;21.50;76.40
64705;DHT22;51131;52.298;13.686;2022-07-23T09:02:40;21.60;76.20
64705;DHT22;51131;52.298;13.686;2022-07-23T09:05:08;21.60;76.60
64705;DHT22;51131;52.298;13.686;2022-07-23T09:07:35;21.60;77.00
64705;DHT22;51131;52.298;13.686;2022-07-23T09:10:06;21.70;77.90
64705;DHT22;51131;52.298;13.686;2022-07-23T09:12:33;21.70;78.10
64705;DHT22;51131;52.298;13.686;2022-07-23T09:15:07;21.70;78.00
64705;DHT22;51131;52.298;13.686;2022-07-23T09:17:39;21.70;77.80
64705;DHT22;51131;52.298;13.686;2022-07-23T09:20:07;21.70;77.70
64705;DHT22;51131;52.298;13.686;2022-07-23T09:22:34;21.70;77.90
64705;DHT22;51131;52.298;13.686;2022-07-23T09:25:08;21.70;77.60
64705;DHT22;51131;52.298;13.686;2022-07-23T09:27:48;21.80;78.10
64705;DHT22;51131;52.298;13.686;2022-07-23T09:30:21;21.70;77.90
64705;DHT22;51131;52.298;13.686;2022-07-23T09:33:04;21.70;77.70
64705;DHT22;51131;52.298;13.686;2022-07-23T09:35:50;21.80;77.70
64705;DHT22;51131;52.298;13.686;2022-07-23T09:38:18;21.80;78.00
64705;DHT22;51131;52.298;13.686;2022-07-23T09:40:46;21.80;77.70
64705;DHT22;51131;52.298;13.686;2022-07-23T09:43:14;20.80;76.50
64705;DHT22;51131;52.298;13.686;2022-07-23T09:46:34;21.70;77.40
64705;DHT22;51131;52.298;13.686;2022-07-23T09:48:54;21.70;77.60
64705;DHT22;51131;52.298;13.686;2022-07-23T09:51:23;21.80;77.80
64705;DHT22;51131;52.298;13.686;2022-07-23T09:53:56;23.00;78.70
64705;DHT22;51131;52.298;13.686;2022-07-23T09:56:23;21.70;77.20
64705;DHT22;51131;52.298;13.686;2022-07-23T09:58:53;21.70;76.90
64705;DHT22;51131;52.298;13.686;2022-07-23T10:01:38;22.00;77.30
64705;DHT22;51131;52.298;13.686;2022-07-23T10:04:05;21.70;76.90
64705;DHT22;51131;52.298;13.686;2022-07-23T10:06:32;21.70;76.90
64705;DHT22;51131;52.298;13.686;2022-07-23T10:08:59;21.70;76.90
64705;DHT22;51131;52.298;13.686;2022-07-23T10:11:28;21.70;76.80
64705;DHT22;51131;52.298;13.686;2022-07-23T10:13:56;21.70;77.00
64705;DHT22;51131;52.298;13.686;2022-07-23T10:16:30;21.70;77.00
64705;DHT22;51131;52.298;13.686;2022-07-23T10:18:56;21.70;76.90
64705;DHT22;51131;52.298;13.686;2022-07-23T10:24:11;21.70;76.70
64705;DHT22;51131;52.298;13.686;2022-07-23T10:26:50;21.70;76.80
64705;DHT22;51131;52.298;13.686;2022-07-23T10:29:22;21.70;76.80
64705;DHT22;51131;52.298;13.686;2022-07-23T10:37:16;21.70;76.90
64705;DHT22;51131;52.298;13.686;2022-07-23T10:40:08;21.70;76.80
64705;DHT22;51131;52.298;13.686;2022-07-23T10:42:36;21.70;76.80
64705;DHT22;51131;52.298;13.686;2022-07-23T10:45:21;21.70;76.80
64705;DHT22;51131;52.298;13.686;2022-07-23T10:47:48;21.70;76.80
64705;DHT22;51131;52.298;13.686;2022-07-23T10:53:07;21.70;76.60
64705;DHT22;51131;52.298;13.686;2022-07-23T10:58:05;22.20;77.20
64705;DHT22;51131;52.298;13.686;2022-07-23T11:00:32;21.60;76.60
64705;DHT22;51131;52.298;13.686;2022-07-23T11:03:00;21.60;76.70
64705;DHT22;51131;52.298;13.686;2022-07-23T11:05:48;21.60;76.60
64705;DHT22;51131;52.298;13.686;2022-07-23T11:08:15;21.70;76.80
64705;DHT22;51131;52.298;13.686;2022-07-23T11:31:52;21.70;76.70
64705;DHT22;51131;52.298;13.686;2022-07-23T11:36:59;21.70;76.80
64705;DHT22;51131;52.298;13.686;2022-07-23T11:39:26;21.60;76.70
64705;DHT22;51131;52.298;13.686;2022-07-23T11:41:54;21.70;76.90
64705;DHT22;51131;52.298;13.686;2022-07-23T11:44:27;21.70;76.30
64705;DHT22;51131;52.298;13.686;2022-07-23T11:46:58;21.60;76.20
64705;DHT22;51131;52.298;13.686;2022-07-23T11:49:26;21.60;76.20
64705;DHT22;51131;52.298;13.686;2022-07-23T11:52:10;21.60;75.50
64705;DHT22;51131;52.298;13.686;2022-07-23T11:54:46;21.60;75.90
64705;DHT22;51131;52.298;13.686;2022-07-23T11:57:13;21.60;76.40
64705;DHT22;51131;52.298;13.686;2022-07-23T11:59:40;21.70;76.60
64705;DHT22;51131;52.298;13.686;2022-07-23T12:02:07;21.60;76.60
64705;DHT22;51131;52.298;13.686;2022-07-23T12:04:40;21.60;76.70
64705;DHT22;51131;52.298;13.686;2022-07-23T12:09:52;21.70;76.80
64705;DHT22;51131;52.298;13.686;2022-07-23T12:12:19;21.70;77.00
64705;DHT22;51131;52.298;13.686;2022-07-23T12:14:56;21.70;77.00
64705;DHT22;51131;52.298;13.686;2022-07-23T12:17:28;21.70;77.00
64705;DHT22;51131;52.298;13.686;2022-07-23T12:19:58;21.70;77.00
64705;DHT22;51131;52.298;13.686;2022-07-23T12:22:26;21.70;77.00
64705;DHT22;51131;52.298;13.686;2022-07-23T12:25:00;21.60;77.00
64705;DHT22;51131;52.298;13.686;2022-07-23T12:27:27;21.60;77.00
64705;DHT22;51131;52.298;13.686;2022-07-23T12:29:54;22.00;77.40
64705;DHT22;51131;52.298;13.686;2022-07-23T12:32:25;21.60;77.10
64705;DHT22;51131;52.298;13.686;2022-07-23T12:35:05;21.60;77.20
64705;DHT22;51131;52.298;13.686;2022-07-23T12:37:36;21.60;77.20
64705;DHT22;51131;52.298;13.686;2022-07-23T12:40:19;21.60;77.30
64705;DHT22;51131;52.298;13.686;2022-07-23T12:42:49;21.60;77.30
64705;DHT22;51131;52.298;13.686;2022-07-23T12:45:16;21.60;77.30
64705;DHT22;51131;52.298;13.686;2022-07-23T12:47:57;21.60;77.10
64705;DHT22;51131;52.298;13.686;2022-07-23T12:56:01;21.60;77.20
64705;DHT22;51131;52.298;13.686;2022-07-23T12:58:42;21.60;77.20
64705;DHT22;51131;52.298;13.686;2022-07-23T13:01:21;21.70;75.80
64705;DHT22;51131;52.298;13.686;2022-07-23T13:06:24;21.90;74.40
64705;DHT22;51131;52.298;13.686;2022-07-23T13:08:51;22.00;74.80
64705;DHT22;51131;52.298;13.686;2022-07-23T13:11:17;23.30;76.60
64705;DHT22;51131;52.298;13.686;2022-07-23T13:13:45;22.00;74.60
64705;DHT22;51131;52.298;13.686;2022-07-23T13:16:12;22.00;74.60
64705;DHT22;51131;52.298;13.686;2022-07-23T13:18:39;22.40;75.20
64705;DHT22;51131;52.298;13.686;2022-07-23T13:21:05;22.00;74.80
64705;DHT22;51131;52.298;13.686;2022-07-23T13:23:32;23.30;76.20
64705;DHT22;51131;52.298;13.686;2022-07-23T13:25:59;22.00;75.00
64705;DHT22;51131;52.298;13.686;2022-07-23T13:28:26;22.00;75.00
64705;DHT22;51131;52.298;13.686;2022-07-23T13:30:53;22.00;75.20
64705;DHT22;51131;52.298;13.686;2022-07-23T13:33:21;22.00;75.30
64705;DHT22;51131;52.298;13.686;2022-07-23T13:35:49;22.00;75.40
64705;DHT22;51131;52.298;13.686;2022-07-23T13:38:17;22.00;75.50
64705;DHT22;51131;52.298;13.686;2022-07-23T13:40:45;21.90;75.40
64705;DHT22;51131;52.298;13.686;2022-07-23T13:43:15;22.00;75.60
64705;DHT22;51131;52.298;13.686;2022-07-23T13:45:48;21.50;75.10
64705;DHT22;51131;52.298;13.686;2022-07-23T13:48:15;22.00;75.80
64705;DHT22;51131;52.298;13.686;2022-07-23T13:50:43;22.00;75.90
64705;DHT22;51131;52.298;13.686;2022-07-23T13:53:11;22.00;75.90
64705;DHT22;51131;52.298;13.686;2022-07-23T13:55:39;22.00;76.10
64705;DHT22;51131;52.298;13.686;2022-07-23T13:58:14;22.00;75.80
64705;DHT22;51131;52.298;13.686;2022-07-23T14:00:42;22.00;75.80
64705;DHT22;51131;52.298;13.686;2022-07-23T14:03:19;22.00;75.90
64705;DHT22;51131;52.298;13.686;2022-07-23T14:05:47;22.00;76.00
64705;DHT22;51131;52.298;13.686;2022-07-23T14:08:14;22.00;76.00
64705;DHT22;51131;52.298;13.686;2022-07-23T14:10:41;22.00;76.10
64705;DHT22;51131;52.298;13.686;2022-07-23T14:13:09;21.90;76.10
64705;DHT22;51131;52.298;13.686;2022-07-23T14:15:35;21.90;76.20
64705;DHT22;51131;52.298;13.686;2022-07-23T14:18:04;21.90;76.20
64705;DHT22;51131;52.298;13.686;2022-07-23T14:20:30;21.90;76.10
64705;DHT22;51131;52.298;13.686;2022-07-23T14:22:57;21.90;76.10
64705;DHT22;51131;52.298;13.686;2022-07-23T14:25:31;21.90;76.00
64705;DHT22;51131;52.298;13.686;2022-07-23T14:27:59;21.90;76.00
64705;DHT22;51131;52.298;13.686;2022-07-23T14:30:26;21.90;76.10
64705;DHT22;51131;52.298;13.686;2022-07-23T14:33:00;21.90;76.00
64705;DHT22;51131;52.298;13.686;2022-07-23T14:35:26;21.90;76.10
64705;DHT22;51131;52.298;13.686;2022-07-23T14:37:53;21.90;76.00
64705;DHT22;51131;52.298;13.686;2022-07-23T14:40:21;21.90;76.10
64705;DHT22;51131;52.298;13.686;2022-07-23T14:42:49;21.90;76.20
64705;DHT22;51131;52.298;13.686;2022-07-23T14:45:16;21.90;76.30
64705;DHT22;51131;52.298;13.686;2022-07-23T14:47:44;21.90;76.40
64705;DHT22;51131;52.298;13.686;2022-07-23T14:50:13;21.90;76.20
64705;DHT22;51131;52.298;13.686;2022-07-23T14:52:40;21.90;76.10
64705;DHT22;51131;52.298;13.686;2022-07-23T14:55:07;21.90;76.20
64705;DHT22;51131;52.298;13.686;2022-07-23T14:57:33;21.90;76.10
64705;DHT22;51131;52.298;13.686;2022-07-23T15:00:01;21.80;76.00
64705;DHT22;51131;52.298;13.686;2022-07-23T15:02:27;21.90;76.10
64705;DHT22;51131;52.298;13.686;2022-07-23T15:04:54;21.90;76.30
64705;DHT22;51131;52.298;13.686;2022-07-23T15:07:21;21.90;76.00
64705;DHT22;51131;52.298;13.686;2022-07-23T15:09:52;21.80;75.60
64705;DHT22;51131;52.298;13.686;2022-07-23T15:12:19;21.90;75.80
64705;DHT22;51131;52.298;13.686;2022-07-23T15:14:48;21.80;75.80
64705;DHT22;51131;52.298;13.686;2022-07-23T15:17:15;21.90;76.10
64705;DHT22;51131;52.298;13.686;2022-07-23T15:19:41;21.80;76.10
64705;DHT22;51131;52.298;13.686;2022-07-23T15:22:08;21.80;76.20
64705;DHT22;51131;52.298;13.686;2022-07-23T15:24:35;21.90;76.20
64705;DHT22;51131;52.298;13.686;2022-07-23T15:27:02;21.80;76.20
64705;DHT22;51131;52.298;13.686;2022-07-23T15:29:30;21.80;76.30
64705;DHT22;51131;52.298;13.686;2022-07-23T15:31:57;21.80;76.40
64705;DHT22;51131;52.298;13.686;2022-07-23T15:34:25;21.80;76.40
64705;DHT22;51131;52.298;13.686;2022-07-23T15:36:51;21.80;76.40
64705;DHT22;51131;52.298;13.686;2022-07-23T15:39:18;21.80;76.30
64705;DHT22;51131;52.298;13.686;2022-07-23T15:41:45;21.80;76.40
64705;DHT22;51131;52.298;13.686;2022-07-23T15:44:13;21.80;76.40
64705;DHT22;51131;52.298;13.686;2022-07-23T15:46:58;21.80;76.50
64705;DHT22;51131;52.298;13.686;2022-07-23T15:49:25;21.80;76.50
64705;DHT22;51131;52.298;13.686;2022-07-23T15:51:53;21.80;76.60
64705;DHT22;51131;52.298;13.686;2022-07-23T15:54:21;22.20;76.90
64705;DHT22;51131;52.298;13.686;2022-07-23T15:56:48;21.80;76.50
64705;DHT22;51131;52.298;13.686;2022-07-23T15:59:15;21.80;76.60
64705;DHT22;51131;52.298;13.686;2022-07-23T16:01:42;21.80;76.50
64705;DHT22;51131;52.298;13.686;2022-07-23T16:04:09;21.80;76.60
64705;DHT22;51131;52.298;13.686;2022-07-23T16:06:36;21.80;76.80
64705;DHT22;51131;52.298;13.686;2022-07-23T16:09:03;21.80;76.60